sensor_id;sensor_type;location;lat;lon;timestamp;P1;durP1;ratioP1;P2;durP2;ratioP2
430;SDS011;202;48.764;9.172;2022-08-01T00:36:44;3.20;;;2.60;;
430;SDS011;202;48.764;9.172;2022-08-01T01:39:31;3.47;;;3.27;;
430;SDS011;202;48.764;9.172;2022-08-01T01:45:24;2.63;;;2.53;;
430;SDS011;202;48.764;9.172;2022-08-01T01:47:57;2.90;;;2.70;;
430;SDS011;202;48.764;9.172;2022-08-01T01:50:27;3.50;;;3.00;;
430;SDS011;202;48.764;9.172;2022-08-01T01:53:01;3.60;;;2.80;;
430;SDS011;202;48.764;9.172;2022-08-01T01:55:35;3.30;;;2.87;;
430;SDS011;202;48.764;9.172;2022-08-01T01:58:05;3.37;;;3.00;;
430;SDS011;202;48.764;9.172;2022-08-01T02:00:37;3.10;;;2.47;;
430;SDS011;202;48.764;9.172;2022-08-01T02:03:12;4.90;;;3.13;;
430;SDS011;202;48.764;9.172;2022-08-01T02:05:41;5.40;;;2.73;;
430;SDS011;202;48.764;9.172;2022-08-01T02:08:09;3.40;;;2.60;;
430;SDS011;202;48.764;9.172;2022-08-01T02:10:43;3.67;;;2.80;;
430;SDS011;202;48.764;9.172;2022-08-01T02:19:44;2.80;;;2.40;;
430;SDS011;202;48.764;9.172;2022-08-01T02:22:25;8.30;;;3.03;;
430;SDS011;202;48.764;9.172;2022-08-01T02:25:19;3.60;;;3.10;;
430;SDS011;202;48.764;9.172;2022-08-01T02:28:15;4.33;;;3.17;;
430;SDS011;202;48.764;9.172;2022-08-01T02:30:53;3.13;;;2.87;;
430;SDS011;202;48.764;9.172;2022-08-01T02:33:34;4.60;;;2.90;;
430;SDS011;202;48.764;9.172;2022-08-01T02:36:04;4.17;;;2.80;;
430;SDS011;202;48.764;9.172;2022-08-01T02:38:44;3.60;;;2.43;;
430;SDS011;202;48.764;9.172;2022-08-01T02:41:19;5.80;;;3.73;;
430;SDS011;202;48.764;9.172;2022-08-01T02:44:18;3.30;;;2.53;;
430;SDS011;202;48.764;9.172;2022-08-01T02:46:57;6.60;;;3.20;;
430;SDS011;202;48.764;9.172;2022-08-01T02:49:27;3.77;;;2.83;;
430;SDS011;202;48.764;9.172;2022-08-01T02:51:59;6.50;;;3.27;;
430;SDS011;202;48.764;9.172;2022-08-01T02:54:30;4.70;;;3.07;;
430;SDS011;202;48.764;9.172;2022-08-01T02:56:59;2.80;;;2.40;;
430;SDS011;202;48.764;9.172;2022-08-01T02:59:33;4.87;;;3.07;;
430;SDS011;202;48.764;9.172;2022-08-01T03:02:03;4.10;;;2.50;;
430;SDS011;202;48.764;9.172;2022-08-01T03:04:33;6.40;;;3.80;;
430;SDS011;202;48.764;9.172;2022-08-01T03:07:03;3.63;;;2.73;;
430;SDS011;202;48.764;9.172;2022-08-01T03:09:35;4.80;;;3.40;;
430;SDS011;202;48.764;9.172;2022-08-01T03:12:10;7.03;;;3.47;;
430;SDS011;202;48.764;9.172;2022-08-01T03:14:47;3.43;;;2.83;;
430;SDS011;202;48.764;9.172;2022-08-01T03:17:17;3.50;;;2.83;;
430;SDS011;202;48.764;9.172;2022-08-01T03:19:51;2.57;;;2.20;;
430;SDS011;202;48.764;9.172;2022-08-01T03:22:21;3.47;;;2.50;;
430;SDS011;202;48.764;9.172;2022-08-01T03:24:51;3.57;;;2.87;;
430;SDS011;202;48.764;9.172;2022-08-01T03:27:19;3.37;;;2.73;;
430;SDS011;202;48.764;9.172;2022-08-01T03:29:50;2.73;;;2.30;;
430;SDS011;202;48.764;9.172;2022-08-01T03:32:18;3.17;;;1.93;;
430;SDS011;202;48.764;9.172;2022-08-01T03:34:49;3.13;;;2.40;;
430;SDS011;202;48.764;9.172;2022-08-01T03:37:25;3.27;;;2.50;;
430;SDS011;202;48.764;9.172;2022-08-01T03:40:24;2.73;;;2.00;;
430;SDS011;202;48.764;9.172;2022-08-01T03:43:55;3.00;;;2.57;;
430;SDS011;202;48.764;9.172;2022-08-01T03:50:55;5.50;;;2.17;;
430;SDS011;202;48.764;9.172;2022-08-01T03:57:42;5.23;;;2.73;;
430;SDS011;202;48.764;9.172;2022-08-01T04:00:22;2.90;;;2.53;;
430;SDS011;202;48.764;9.172;2022-08-01T04:02:55;4.10;;;2.73;;
430;SDS011;202;48.764;9.172;2022-08-01T04:05:31;4.30;;;2.73;;
430;SDS011;202;48.764;9.172;2022-08-01T04:08:09;3.20;;;2.37;;
430;SDS011;202;48.764;9.172;2022-08-01T04:10:45;3.67;;;2.53;;
430;SDS011;202;48.764;9.172;2022-08-01T04:13:19;3.13;;;2.50;;
430;SDS011;202;48.764;9.172;2022-08-01T04:15:52;6.30;;;2.37;;
430;SDS011;202;48.764;9.172;2022-08-01T04:18:23;2.97;;;2.50;;
430;SDS011;202;48.764;9.172;2022-08-01T04:21:08;3.13;;;2.47;;
430;SDS011;202;48.764;9.172;2022-08-01T04:30:29;3.00;;;2.20;;
430;SDS011;202;48.764;9.172;2022-08-01T04:33:00;3.10;;;2.50;;
430;SDS011;202;48.764;9.172;2022-08-01T04:35:31;3.20;;;2.20;;
430;SDS011;202;48.764;9.172;2022-08-01T04:38:00;2.40;;;1.97;;
430;SDS011;202;48.764;9.172;2022-08-01T04:40:31;3.07;;;2.33;;
430;SDS011;202;48.764;9.172;2022-08-01T04:43:03;4.23;;;2.53;;
430;SDS011;202;48.764;9.172;2022-08-01T04:45:31;2.47;;;2.00;;
430;SDS011;202;48.764;9.172;2022-08-01T04:47:59;2.73;;;2.03;;
430;SDS011;202;48.764;9.172;2022-08-01T04:50:33;4.97;;;2.37;;
430;SDS011;202;48.764;9.172;2022-08-01T04:53:02;3.77;;;2.50;;
430;SDS011;202;48.764;9.172;2022-08-01T04:55:37;4.87;;;2.23;;
430;SDS011;202;48.764;9.172;2022-08-01T04:58:08;3.40;;;2.20;;
430;SDS011;202;48.764;9.172;2022-08-01T05:00:44;3.67;;;2.13;;
430;SDS011;202;48.764;9.172;2022-08-01T05:03:18;3.43;;;2.60;;
430;SDS011;202;48.764;9.172;2022-08-01T05:06:13;4.90;;;3.13;;
430;SDS011;202;48.764;9.172;2022-08-01T05:08:45;3.03;;;2.40;;
430;SDS011;202;48.764;9.172;2022-08-01T05:11:28;2.17;;;2.00;;
430;SDS011;202;48.764;9.172;2022-08-01T05:17:12;6.27;;;2.43;;
430;SDS011;202;48.764;9.172;2022-08-01T05:20:10;2.27;;;1.70;;
430;SDS011;202;48.764;9.172;2022-08-01T05:22:58;2.60;;;2.17;;
430;SDS011;202;48.764;9.172;2022-08-01T05:25:27;3.50;;;2.30;;
430;SDS011;202;48.764;9.172;2022-08-01T05:27:57;3.70;;;2.23;;
430;SDS011;202;48.764;9.172;2022-08-01T05:30:29;2.67;;;1.97;;
430;SDS011;202;48.764;9.172;2022-08-01T05:33:00;3.73;;;2.00;;
430;SDS011;202;48.764;9.172;2022-08-01T05:35:29;3.23;;;1.97;;
430;SDS011;202;48.764;9.172;2022-08-01T05:37:57;3.27;;;1.97;;
430;SDS011;202;48.764;9.172;2022-08-01T05:40:35;4.50;;;2.40;;
430;SDS011;202;48.764;9.172;2022-08-01T05:43:10;2.77;;;2.10;;
430;SDS011;202;48.764;9.172;2022-08-01T05:45:45;2.60;;;1.80;;
430;SDS011;202;48.764;9.172;2022-08-01T05:48:33;2.87;;;1.90;;
430;SDS011;202;48.764;9.172;2022-08-01T05:51:19;3.83;;;2.50;;
430;SDS011;202;48.764;9.172;2022-08-01T05:56:57;2.80;;;1.87;;
430;SDS011;202;48.764;9.172;2022-08-01T05:59:31;3.33;;;1.90;;
430;SDS011;202;48.764;9.172;2022-08-01T06:02:10;4.33;;;1.93;;
430;SDS011;202;48.764;9.172;2022-08-01T06:04:50;2.50;;;1.90;;
430;SDS011;202;48.764;9.172;2022-08-01T06:07:32;4.03;;;2.23;;
430;SDS011;202;48.764;9.172;2022-08-01T06:10:27;3.07;;;1.70;;
430;SDS011;202;48.764;9.172;2022-08-01T06:12:54;2.20;;;1.63;;
430;SDS011;202;48.764;9.172;2022-08-01T06:15:28;4.20;;;1.77;;
430;SDS011;202;48.764;9.172;2022-08-01T06:20:59;4.80;;;2.07;;
430;SDS011;202;48.764;9.172;2022-08-01T06:23:32;2.47;;;1.63;;
430;SDS011;202;48.764;9.172;2022-08-01T06:26:37;2.40;;;1.80;;
430;SDS011;202;48.764;9.172;2022-08-01T06:29:06;2.40;;;1.80;;
430;SDS011;202;48.764;9.172;2022-08-01T06:31:43;2.60;;;1.60;;
430;SDS011;202;48.764;9.172;2022-08-01T06:34:26;2.20;;;1.60;;
430;SDS011;202;48.764;9.172;2022-08-01T06:36:59;2.20;;;1.60;;
430;SDS011;202;48.764;9.172;2022-08-01T06:39:26;4.70;;;1.53;;
430;SDS011;202;48.764;9.172;2022-08-01T06:42:10;2.57;;;2.00;;
430;SDS011;202;48.764;9.172;2022-08-01T06:44:59;2.53;;;1.50;;
430;SDS011;202;48.764;9.172;2022-08-01T06:48:04;4.47;;;2.43;;
430;SDS011;202;48.764;9.172;2022-08-01T06:53:54;2.37;;;1.57;;
430;SDS011;202;48.764;9.172;2022-08-01T06:56:43;2.47;;;1.80;;
430;SDS011;202;48.764;9.172;2022-08-01T06:59:34;2.57;;;1.70;;
430;SDS011;202;48.764;9.172;2022-08-01T07:02:03;2.60;;;1.60;;
430;SDS011;202;48.764;9.172;2022-08-01T07:04:38;2.57;;;1.50;;
430;SDS011;202;48.764;9.172;2022-08-01T07:07:18;2.50;;;1.60;;
430;SDS011;202;48.764;9.172;2022-08-01T07:09:48;2.97;;;1.70;;
430;SDS011;202;48.764;9.172;2022-08-01T07:12:37;2.83;;;1.80;;
430;SDS011;202;48.764;9.172;2022-08-01T07:15:10;3.80;;;1.80;;
430;SDS011;202;48.764;9.172;2022-08-01T07:17:38;3.37;;;2.07;;
430;SDS011;202;48.764;9.172;2022-08-01T07:20:11;2.20;;;1.70;;
430;SDS011;202;48.764;9.172;2022-08-01T07:22:55;3.10;;;2.23;;
430;SDS011;202;48.764;9.172;2022-08-01T07:25:36;2.27;;;1.77;;
430;SDS011;202;48.764;9.172;2022-08-01T07:28:17;2.00;;;1.37;;
430;SDS011;202;48.764;9.172;2022-08-01T07:34:04;2.67;;;1.63;;
430;SDS011;202;48.764;9.172;2022-08-01T07:36:55;2.20;;;1.70;;
430;SDS011;202;48.764;9.172;2022-08-01T08:26:20;3.03;;;2.27;;
430;SDS011;202;48.764;9.172;2022-08-01T08:29:05;4.27;;;2.13;;
430;SDS011;202;48.764;9.172;2022-08-01T08:32:23;2.43;;;2.27;;
430;SDS011;202;48.764;9.172;2022-08-01T08:35:26;2.60;;;2.00;;
430;SDS011;202;48.764;9.172;2022-08-01T08:38:05;3.27;;;2.50;;
430;SDS011;202;48.764;9.172;2022-08-01T08:41:12;2.40;;;2.00;;
430;SDS011;202;48.764;9.172;2022-08-01T08:44:39;4.77;;;3.20;;
430;SDS011;202;48.764;9.172;2022-08-01T08:47:23;6.90;;;3.10;;
430;SDS011;202;48.764;9.172;2022-08-01T08:50:20;8.40;;;3.10;;
430;SDS011;202;48.764;9.172;2022-08-01T08:53:00;3.77;;;2.73;;
430;SDS011;202;48.764;9.172;2022-08-01T08:55:49;3.83;;;2.67;;
430;SDS011;202;48.764;9.172;2022-08-01T08:58:42;6.13;;;2.47;;
430;SDS011;202;48.764;9.172;2022-08-01T09:01:49;4.90;;;3.43;;
430;SDS011;202;48.764;9.172;2022-08-01T09:04:45;4.97;;;2.80;;
430;SDS011;202;48.764;9.172;2022-08-01T09:07:34;4.50;;;3.40;;
430;SDS011;202;48.764;9.172;2022-08-01T09:13:15;6.27;;;5.33;;
430;SDS011;202;48.764;9.172;2022-08-01T09:15:55;5.77;;;3.70;;
430;SDS011;202;48.764;9.172;2022-08-01T09:22:02;4.53;;;4.23;;
430;SDS011;202;48.764;9.172;2022-08-01T09:24:59;4.60;;;4.37;;
430;SDS011;202;48.764;9.172;2022-08-01T09:37:16;7.13;;;5.93;;
430;SDS011;202;48.764;9.172;2022-08-01T09:40:13;7.20;;;6.10;;
430;SDS011;202;48.764;9.172;2022-08-01T09:43:21;6.97;;;6.43;;
430;SDS011;202;48.764;9.172;2022-08-01T09:46:04;8.50;;;7.80;;
430;SDS011;202;48.764;9.172;2022-08-01T10:09:10;5.93;;;5.27;;
430;SDS011;202;48.764;9.172;2022-08-01T10:12:26;6.23;;;5.73;;
430;SDS011;202;48.764;9.172;2022-08-01T10:19:31;5.23;;;4.80;;
430;SDS011;202;48.764;9.172;2022-08-01T10:23:05;5.00;;;4.40;;
430;SDS011;202;48.764;9.172;2022-08-01T10:26:12;4.67;;;4.37;;
430;SDS011;202;48.764;9.172;2022-08-01T10:32:59;4.60;;;4.23;;
430;SDS011;202;48.764;9.172;2022-08-01T10:47:12;4.80;;;4.50;;
430;SDS011;202;48.764;9.172;2022-08-01T12:25:01;4.83;;;3.10;;
430;SDS011;202;48.764;9.172;2022-08-01T12:28:38;3.27;;;2.50;;
430;SDS011;202;48.764;9.172;2022-08-01T12:32:00;5.37;;;4.00;;
430;SDS011;202;48.764;9.172;2022-08-01T15:14:28;2.93;;;2.57;;
430;SDS011;202;48.764;9.172;2022-08-01T15:38:29;2.97;;;2.47;;
430;SDS011;202;48.764;9.172;2022-08-01T15:40:58;2.43;;;2.00;;
430;SDS011;202;48.764;9.172;2022-08-01T15:43:27;3.80;;;2.00;;
430;SDS011;202;48.764;9.172;2022-08-01T15:46:06;3.43;;;2.20;;
430;SDS011;202;48.764;9.172;2022-08-01T15:48:35;2.47;;;1.80;;
430;SDS011;202;48.764;9.172;2022-08-01T15:51:06;2.80;;;2.60;;
430;SDS011;202;48.764;9.172;2022-08-01T15:53:34;2.23;;;2.13;;
430;SDS011;202;48.764;9.172;2022-08-01T15:56:04;2.90;;;2.53;;
430;SDS011;202;48.764;9.172;2022-08-01T15:58:31;2.67;;;1.97;;
430;SDS011;202;48.764;9.172;2022-08-01T16:01:01;2.07;;;1.80;;
430;SDS011;202;48.764;9.172;2022-08-01T16:03:33;2.50;;;1.97;;
430;SDS011;202;48.764;9.172;2022-08-01T16:06:00;4.20;;;2.43;;
430;SDS011;202;48.764;9.172;2022-08-01T16:08:33;2.70;;;1.70;;
430;SDS011;202;48.764;9.172;2022-08-01T16:11:00;4.10;;;2.43;;
430;SDS011;202;48.764;9.172;2022-08-01T16:13:27;3.03;;;1.63;;
430;SDS011;202;48.764;9.172;2022-08-01T16:16:06;3.00;;;1.83;;
430;SDS011;202;48.764;9.172;2022-08-01T16:18:37;4.47;;;2.70;;
430;SDS011;202;48.764;9.172;2022-08-01T16:21:07;3.20;;;2.50;;
430;SDS011;202;48.764;9.172;2022-08-01T16:23:50;2.67;;;2.07;;
430;SDS011;202;48.764;9.172;2022-08-01T16:26:27;3.90;;;1.90;;
430;SDS011;202;48.764;9.172;2022-08-01T16:28:55;3.50;;;1.97;;
430;SDS011;202;48.764;9.172;2022-08-01T16:31:25;2.50;;;2.10;;
430;SDS011;202;48.764;9.172;2022-08-01T16:33:54;2.77;;;2.07;;
430;SDS011;202;48.764;9.172;2022-08-01T16:36:21;3.00;;;1.93;;
430;SDS011;202;48.764;9.172;2022-08-01T16:38:57;2.50;;;1.70;;
430;SDS011;202;48.764;9.172;2022-08-01T16:41:25;3.47;;;2.10;;
430;SDS011;202;48.764;9.172;2022-08-01T16:43:56;1.97;;;1.50;;
430;SDS011;202;48.764;9.172;2022-08-01T16:46:25;2.80;;;1.80;;
430;SDS011;202;48.764;9.172;2022-08-01T16:48:52;3.07;;;1.50;;
430;SDS011;202;48.764;9.172;2022-08-01T16:51:22;2.50;;;1.90;;
430;SDS011;202;48.764;9.172;2022-08-01T16:53:49;3.13;;;2.23;;
430;SDS011;202;48.764;9.172;2022-08-01T16:56:18;3.83;;;2.00;;
430;SDS011;202;48.764;9.172;2022-08-01T16:58:45;2.47;;;1.57;;
430;SDS011;202;48.764;9.172;2022-08-01T17:01:12;2.67;;;1.67;;
430;SDS011;202;48.764;9.172;2022-08-01T17:03:39;2.67;;;1.40;;
430;SDS011;202;48.764;9.172;2022-08-01T17:06:09;3.27;;;1.60;;
430;SDS011;202;48.764;9.172;2022-08-01T17:08:36;3.87;;;1.57;;
430;SDS011;202;48.764;9.172;2022-08-01T17:11:04;3.17;;;2.23;;
430;SDS011;202;48.764;9.172;2022-08-01T17:13:35;2.80;;;1.83;;
430;SDS011;202;48.764;9.172;2022-08-01T17:16:02;7.53;;;1.80;;
430;SDS011;202;48.764;9.172;2022-08-01T17:18:29;5.90;;;1.53;;
430;SDS011;202;48.764;9.172;2022-08-01T17:20:56;2.33;;;1.47;;
430;SDS011;202;48.764;9.172;2022-08-01T17:23:24;3.60;;;1.63;;
430;SDS011;202;48.764;9.172;2022-08-01T17:25:52;3.70;;;2.60;;
430;SDS011;202;48.764;9.172;2022-08-01T17:28:19;2.57;;;1.43;;
430;SDS011;202;48.764;9.172;2022-08-01T17:30:48;4.27;;;1.67;;
430;SDS011;202;48.764;9.172;2022-08-01T17:33:15;2.90;;;1.70;;
430;SDS011;202;48.764;9.172;2022-08-01T17:35:45;2.83;;;1.77;;
430;SDS011;202;48.764;9.172;2022-08-01T17:38:12;2.20;;;1.63;;
430;SDS011;202;48.764;9.172;2022-08-01T17:40:39;2.93;;;2.67;;
430;SDS011;202;48.764;9.172;2022-08-01T17:43:07;5.60;;;2.20;;
430;SDS011;202;48.764;9.172;2022-08-01T17:45:34;3.57;;;2.00;;
430;SDS011;202;48.764;9.172;2022-08-01T17:48:05;3.10;;;2.23;;
430;SDS011;202;48.764;9.172;2022-08-01T17:50:40;2.73;;;2.00;;
430;SDS011;202;48.764;9.172;2022-08-01T17:53:08;2.43;;;1.50;;
430;SDS011;202;48.764;9.172;2022-08-01T17:55:35;3.03;;;2.10;;
430;SDS011;202;48.764;9.172;2022-08-01T17:58:02;3.50;;;2.00;;
430;SDS011;202;48.764;9.172;2022-08-01T18:00:40;6.47;;;1.77;;
430;SDS011;202;48.764;9.172;2022-08-01T18:04:02;5.93;;;2.20;;
430;SDS011;202;48.764;9.172;2022-08-01T18:07:03;3.20;;;2.00;;
430;SDS011;202;48.764;9.172;2022-08-01T18:09:45;3.43;;;1.60;;
430;SDS011;202;48.764;9.172;2022-08-01T18:12:34;4.67;;;2.67;;
430;SDS011;202;48.764;9.172;2022-08-01T18:15:14;5.90;;;3.10;;
430;SDS011;202;48.764;9.172;2022-08-01T18:17:47;3.90;;;2.53;;
430;SDS011;202;48.764;9.172;2022-08-01T18:20:39;2.90;;;2.17;;
430;SDS011;202;48.764;9.172;2022-08-01T18:23:47;3.53;;;1.90;;
430;SDS011;202;48.764;9.172;2022-08-01T18:26:24;5.60;;;3.43;;
430;SDS011;202;48.764;9.172;2022-08-01T18:29:01;2.87;;;2.03;;
430;SDS011;202;48.764;9.172;2022-08-01T18:31:50;3.53;;;2.73;;
430;SDS011;202;48.764;9.172;2022-08-01T18:34:27;3.17;;;2.03;;
430;SDS011;202;48.764;9.172;2022-08-01T18:37:14;2.27;;;1.80;;
430;SDS011;202;48.764;9.172;2022-08-01T18:40:14;2.63;;;1.90;;
430;SDS011;202;48.764;9.172;2022-08-01T18:43:08;3.90;;;1.50;;
430;SDS011;202;48.764;9.172;2022-08-01T18:45:58;3.63;;;2.10;;
430;SDS011;202;48.764;9.172;2022-08-01T18:48:58;4.07;;;2.07;;
430;SDS011;202;48.764;9.172;2022-08-01T18:58:50;4.17;;;3.00;;
430;SDS011;202;48.764;9.172;2022-08-01T19:01:33;3.13;;;1.90;;
430;SDS011;202;48.764;9.172;2022-08-01T19:04:21;2.57;;;1.83;;
430;SDS011;202;48.764;9.172;2022-08-01T19:06:56;2.23;;;1.63;;
430;SDS011;202;48.764;9.172;2022-08-01T19:09:45;3.77;;;2.10;;
430;SDS011;202;48.764;9.172;2022-08-01T19:12:36;8.13;;;4.20;;
430;SDS011;202;48.764;9.172;2022-08-01T19:15:26;3.93;;;1.80;;
430;SDS011;202;48.764;9.172;2022-08-01T19:18:09;7.63;;;3.63;;
430;SDS011;202;48.764;9.172;2022-08-01T19:20:44;5.20;;;2.63;;
430;SDS011;202;48.764;9.172;2022-08-01T19:23:34;4.70;;;3.17;;
430;SDS011;202;48.764;9.172;2022-08-01T19:26:49;4.00;;;2.50;;
430;SDS011;202;48.764;9.172;2022-08-01T19:29:49;9.13;;;2.33;;
430;SDS011;202;48.764;9.172;2022-08-01T19:36:23;2.40;;;2.17;;
430;SDS011;202;48.764;9.172;2022-08-01T19:40:18;2.20;;;1.80;;
430;SDS011;202;48.764;9.172;2022-08-01T19:43:11;5.13;;;2.50;;
430;SDS011;202;48.764;9.172;2022-08-01T19:46:25;2.80;;;1.77;;
430;SDS011;202;48.764;9.172;2022-08-01T19:53:01;4.20;;;1.70;;
430;SDS011;202;48.764;9.172;2022-08-01T19:56:55;3.47;;;2.73;;
430;SDS011;202;48.764;9.172;2022-08-01T19:59:33;3.47;;;2.67;;
430;SDS011;202;48.764;9.172;2022-08-01T21:16:11;3.90;;;2.60;;
430;SDS011;202;48.764;9.172;2022-08-01T21:22:21;3.40;;;2.10;;
430;SDS011;202;48.764;9.172;2022-08-01T21:24:55;3.20;;;2.47;;
430;SDS011;202;48.764;9.172;2022-08-01T21:27:28;2.60;;;2.00;;
430;SDS011;202;48.764;9.172;2022-08-01T21:29:58;2.97;;;2.30;;
430;SDS011;202;48.764;9.172;2022-08-01T21:32:28;5.00;;;2.20;;
430;SDS011;202;48.764;9.172;2022-08-01T21:34:57;3.90;;;2.47;;
430;SDS011;202;48.764;9.172;2022-08-01T21:37:25;2.70;;;2.00;;
430;SDS011;202;48.764;9.172;2022-08-01T21:39:54;4.30;;;2.20;;
430;SDS011;202;48.764;9.172;2022-08-01T21:42:22;2.43;;;1.83;;
430;SDS011;202;48.764;9.172;2022-08-01T21:44:53;2.50;;;1.90;;
430;SDS011;202;48.764;9.172;2022-08-01T21:47:25;3.43;;;1.93;;
430;SDS011;202;48.764;9.172;2022-08-01T21:49:59;5.40;;;2.63;;
430;SDS011;202;48.764;9.172;2022-08-01T21:52:28;3.00;;;1.60;;
430;SDS011;202;48.764;9.172;2022-08-01T21:55:08;2.63;;;1.93;;
430;SDS011;202;48.764;9.172;2022-08-01T21:57:51;3.73;;;2.60;;
430;SDS011;202;48.764;9.172;2022-08-01T22:00:26;4.87;;;2.53;;
430;SDS011;202;48.764;9.172;2022-08-01T22:02:56;3.70;;;2.50;;
430;SDS011;202;48.764;9.172;2022-08-01T22:05:27;2.77;;;2.23;;
430;SDS011;202;48.764;9.172;2022-08-01T22:07:57;3.93;;;2.40;;
430;SDS011;202;48.764;9.172;2022-08-01T22:10:26;2.70;;;2.00;;
430;SDS011;202;48.764;9.172;2022-08-01T22:12:54;2.77;;;2.27;;
430;SDS011;202;48.764;9.172;2022-08-01T22:15:22;2.10;;;1.67;;
430;SDS011;202;48.764;9.172;2022-08-01T22:17:50;3.30;;;2.20;;
430;SDS011;202;48.764;9.172;2022-08-01T22:20:20;3.10;;;2.20;;
430;SDS011;202;48.764;9.172;2022-08-01T22:22:47;3.20;;;1.87;;
430;SDS011;202;48.764;9.172;2022-08-01T22:25:15;3.10;;;1.80;;
430;SDS011;202;48.764;9.172;2022-08-01T22:27:42;3.40;;;2.30;;
430;SDS011;202;48.764;9.172;2022-08-01T22:30:10;2.90;;;1.80;;
430;SDS011;202;48.764;9.172;2022-08-01T22:32:39;3.70;;;2.23;;
430;SDS011;202;48.764;9.172;2022-08-01T22:35:08;2.97;;;1.80;;
430;SDS011;202;48.764;9.172;2022-08-01T22:37:38;3.57;;;1.70;;
430;SDS011;202;48.764;9.172;2022-08-01T22:40:06;3.30;;;2.10;;
430;SDS011;202;48.764;9.172;2022-08-01T22:42:37;2.67;;;1.70;;
430;SDS011;202;48.764;9.172;2022-08-01T22:45:08;5.67;;;1.77;;
430;SDS011;202;48.764;9.172;2022-08-01T22:50:24;3.50;;;1.73;;
430;SDS011;202;48.764;9.172;2022-08-01T22:53:00;2.37;;;1.10;;
430;SDS011;202;48.764;9.172;2022-08-01T22:55:36;4.97;;;1.70;;
430;SDS011;202;48.764;9.172;2022-08-01T22:58:03;2.77;;;1.90;;
430;SDS011;202;48.764;9.172;2022-08-01T23:00:34;2.47;;;1.57;;
430;SDS011;202;48.764;9.172;2022-08-01T23:03:04;2.00;;;1.40;;
430;SDS011;202;48.764;9.172;2022-08-01T23:05:38;6.03;;;2.00;;
430;SDS011;202;48.764;9.172;2022-08-01T23:08:12;2.40;;;1.40;;
430;SDS011;202;48.764;9.172;2022-08-01T23:10:41;2.53;;;1.57;;
430;SDS011;202;48.764;9.172;2022-08-01T23:13:08;2.67;;;1.60;;
430;SDS011;202;48.764;9.172;2022-08-01T23:15:36;3.70;;;2.27;;
430;SDS011;202;48.764;9.172;2022-08-01T23:18:05;2.77;;;1.90;;
430;SDS011;202;48.764;9.172;2022-08-01T23:20:33;4.80;;;2.03;;
430;SDS011;202;48.764;9.172;2022-08-01T23:23:01;2.90;;;2.10;;
430;SDS011;202;48.764;9.172;2022-08-01T23:25:29;4.67;;;1.80;;
430;SDS011;202;48.764;9.172;2022-08-01T23:27:58;3.60;;;2.40;;
430;SDS011;202;48.764;9.172;2022-08-01T23:30:26;3.23;;;2.00;;
430;SDS011;202;48.764;9.172;2022-08-01T23:32:55;4.33;;;1.90;;
430;SDS011;202;48.764;9.172;2022-08-01T23:35:22;3.60;;;2.17;;
430;SDS011;202;48.764;9.172;2022-08-01T23:37:49;3.37;;;2.03;;
430;SDS011;202;48.764;9.172;2022-08-01T23:40:17;2.83;;;1.97;;
430;SDS011;202;48.764;9.172;2022-08-01T23:42:45;3.33;;;2.50;;
430;SDS011;202;48.764;9.172;2022-08-01T23:45:12;3.63;;;2.30;;
430;SDS011;202;48.764;9.172;2022-08-01T23:47:40;3.00;;;2.30;;
430;SDS011;202;48.764;9.172;2022-08-01T23:50:08;3.40;;;2.70;;
430;SDS011;202;48.764;9.172;2022-08-01T23:52:35;3.17;;;2.30;;
430;SDS011;202;48.764;9.172;2022-08-01T23:55:02;4.23;;;2.70;;
430;SDS011;202;48.764;9.172;2022-08-01T23:57:30;3.07;;;2.33;;
430;SDS011;202;48.764;9.172;2022-08-01T23:59:58;3.53;;;2.23;;
